Time;durP1;ratioP1;P1;durP2;ratioP2;P2;SDS_P1;SDS_P2;PMS_P1;PMS_P2;Temp;Humidity;BMP_temperature;BMP_pressure;BME280_temperature;BME280_humidity;BME280_pressure;Samples;Min_cycle;Max_cycle;Signal;HPM_P1;HPM_P2
2021/05/08 00:01:57;;;;;;;5.63;4.07;;;;;;;2.82;90.53;97026.94;5026151;28;20933;-60
2021/05/08 00:04:23;;;;;;;7.05;3.95;;;;;;;2.71;90.23;97022.88;5039052;28;20447;-62
2021/05/08 00:06:48;;;;;;;5.15;3.90;;;;;;;2.57;90.40;97020.22;5043279;28;20049;-62
2021/05/08 00:09:13;;;;;;;7.05;4.13;;;;;;;2.44;91.28;97019.19;5042549;28;20044;-62
2021/05/08 00:11:40;;;;;;;6.78;4.65;;;;;;;2.39;92.38;97016.59;5058399;28;20079;-63
2021/05/08 00:14:06;;;;;;;5.75;4.35;;;;;;;2.38;92.35;97015.00;5056099;28;20045;-61
2021/05/08 00:16:32;;;;;;;6.97;4.60;;;;;;;2.60;92.37;97016.94;5063874;28;20040;-62
2021/05/08 00:18:58;;;;;;;6.88;5.10;;;;;;;2.76;91.44;97017.38;5053955;28;20093;-63
2021/05/08 00:21:24;;;;;;;7.13;4.28;;;;;;;2.74;90.60;97008.72;5058414;28;20056;-62
2021/05/08 00:23:49;;;;;;;6.97;4.72;;;;;;;2.87;90.78;97008.66;5064366;28;20491;-62
2021/05/08 00:26:14;;;;;;;5.95;4.40;;;;;;;2.97;89.82;97006.81;5039717;28;20043;-62
2021/05/08 00:28:40;;;;;;;8.38;4.40;;;;;;;2.99;90.16;97013.53;5042037;28;20391;-62
2021/05/08 00:31:06;;;;;;;8.35;4.68;;;;;;;3.02;90.23;97010.19;5039748;28;20047;-64
2021/05/08 00:33:31;;;;;;;7.00;4.20;;;;;;;3.12;90.21;97016.47;5057671;28;20044;-62
2021/05/08 00:35:57;;;;;;;7.28;4.30;;;;;;;3.13;89.92;97008.00;5055038;28;20128;-62
2021/05/08 00:38:22;;;;;;;8.05;4.82;;;;;;;3.19;88.99;96995.97;5045279;28;20045;-61
2021/05/08 00:40:48;;;;;;;6.22;4.35;;;;;;;3.12;88.65;97006.44;5071703;28;20628;-62
2021/05/08 00:43:15;;;;;;;9.07;4.15;;;;;;;3.11;89.58;97006.75;5040640;28;20041;-62
2021/05/08 00:45:40;;;;;;;7.30;4.95;;;;;;;3.06;89.38;97007.66;5063982;28;20135;-62
2021/05/08 00:48:09;;;;;;;8.52;3.78;;;;;;;3.09;88.96;97015.16;5057381;28;20135;-62
2021/05/08 00:50:35;;;;;;;8.15;5.07;;;;;;;3.09;89.16;97003.53;5045485;28;20097;-62
2021/05/08 00:53:03;;;;;;;8.20;4.57;;;;;;;3.02;89.26;97012.09;5061483;28;20040;-65
2021/05/08 00:55:29;;;;;;;7.38;5.22;;;;;;;3.08;89.30;97018.19;5044309;28;20040;-62
2021/05/08 00:57:55;;;;;;;9.13;4.50;;;;;;;3.14;89.95;97011.53;5041907;28;20044;-62
2021/05/08 01:00:22;;;;;;;5.97;4.30;;;;;;;3.06;89.20;97013.06;5038458;28;20342;-62
2021/05/08 01:02:48;;;;;;;8.32;5.30;;;;;;;3.15;89.64;97007.72;5042594;28;20037;-62
2021/05/08 01:05:15;;;;;;;10.32;4.90;;;;;;;3.23;89.33;97009.66;5017941;28;20052;-63
2021/05/08 01:07:41;;;;;;;7.70;4.40;;;;;;;3.23;89.10;97012.38;5025051;28;20047;-63
2021/05/08 01:10:12;;;;;;;9.20;4.22;;;;;;;3.27;88.78;97009.84;5040977;28;20102;-65
2021/05/08 01:12:39;;;;;;;6.95;5.03;;;;;;;3.27;88.77;97013.34;5053692;28;20060;-62
2021/05/08 01:15:10;;;;;;;6.10;4.78;;;;;;;3.35;88.54;97017.19;5058001;28;20120;-64
2021/05/08 01:17:39;;;;;;;7.93;4.90;;;;;;;3.31;89.17;97014.31;5061915;28;20479;-62
2021/05/08 01:20:09;;;;;;;8.27;4.28;;;;;;;3.37;88.77;97015.00;5057533;28;20098;-64
2021/05/08 01:22:36;;;;;;;5.82;4.40;;;;;;;3.32;88.82;97020.56;5062282;28;20083;-62
2021/05/08 01:25:04;;;;;;;5.78;4.07;;;;;;;3.26;88.90;97022.59;5065550;28;20053;-62
2021/05/08 01:27:30;;;;;;;9.25;4.30;;;;;;;3.29;88.81;97013.03;5065755;28;20048;-60
2021/05/08 01:29:55;;;;;;;6.35;4.35;;;;;;;3.18;89.57;97013.31;5066532;28;20075;-63
2021/05/08 01:32:20;;;;;;;6.22;4.07;;;;;;;3.13;89.84;97013.44;5060952;28;20087;-62
2021/05/08 01:34:46;;;;;;;7.63;4.72;;;;;;;3.10;90.30;97021.38;5063687;28;20087;-62
2021/05/08 01:37:11;;;;;;;9.73;4.70;;;;;;;3.18;89.43;97021.41;5057664;28;20039;-61
2021/05/08 01:39:37;;;;;;;7.95;4.82;;;;;;;3.19;89.09;97024.94;5061966;28;20036;-62
2021/05/08 01:42:02;;;;;;;5.38;3.92;;;;;;;3.13;89.13;97029.66;5057641;28;20501;-65
2021/05/08 01:44:28;;;;;;;6.20;4.32;;;;;;;3.08;89.24;97012.75;5072052;28;20109;-62
2021/05/08 01:46:54;;;;;;;5.50;4.10;;;;;;;3.08;89.24;97010.06;5083085;28;20048;-61
2021/05/08 01:49:20;;;;;;;9.43;4.60;;;;;;;3.03;89.90;97011.78;5076680;28;20054;-63
2021/05/08 01:51:46;;;;;;;6.03;4.25;;;;;;;2.95;89.52;97004.41;5063980;28;20036;-62
2021/05/08 01:54:22;;;;;;;8.35;3.67;;;;;;;2.99;89.96;97010.81;5071339;28;20558;-63
2021/05/08 01:56:48;;;;;;;9.68;4.10;;;;;;;2.95;90.08;97007.13;5025999;28;20045;-63
2021/05/08 01:59:14;;;;;;;8.02;4.80;;;;;;;3.01;89.62;97007.81;5037270;28;20040;-61
2021/05/08 02:01:40;;;;;;;6.65;4.53;;;;;;;2.93;89.70;97009.34;5043027;28;20052;-63
2021/05/08 02:04:09;;;;;;;7.75;4.63;;;;;;;2.84;89.34;97003.88;5049237;28;20419;-63
2021/05/08 02:06:37;;;;;;;5.47;3.87;;;;;;;2.81;89.99;96995.56;5040966;28;20171;-62
2021/05/08 02:09:06;;;;;;;7.22;4.38;;;;;;;2.86;90.20;96998.97;5044385;28;20515;-63
2021/05/08 02:11:32;;;;;;;6.28;4.07;;;;;;;2.86;89.65;96987.34;5032369;28;20037;-63
2021/05/08 02:13:57;;;;;;;6.60;4.00;;;;;;;2.86;90.18;96985.44;5051861;28;20049;-63
2021/05/08 02:16:23;;;;;;;7.15;4.28;;;;;;;2.84;90.00;96984.13;5046812;28;20849;-62
2021/05/08 02:18:48;;;;;;;6.40;4.13;;;;;;;2.86;89.92;96985.44;5049604;28;20083;-60
2021/05/08 02:21:13;;;;;;;6.80;3.95;;;;;;;2.90;89.71;96980.22;5034326;28;20124;-62
2021/05/08 02:23:39;;;;;;;7.22;4.32;;;;;;;3.00;89.26;96969.09;5025555;28;20036;-61
2021/05/08 02:26:04;;;;;;;6.47;3.80;;;;;;;3.02;89.12;96961.47;5040552;28;20049;-63
2021/05/08 02:28:30;;;;;;;6.30;3.75;;;;;;;2.99;88.48;96967.53;5039597;28;20106;-63
2021/05/08 02:30:55;;;;;;;6.35;4.30;;;;;;;2.89;89.83;96970.50;5057240;28;20073;-61
2021/05/08 02:33:21;;;;;;;7.50;4.15;;;;;;;2.94;88.92;96964.94;5056168;28;20888;-63
2021/05/08 02:35:47;;;;;;;6.38;3.72;;;;;;;2.91;89.43;96964.78;5020276;28;20041;-64
2021/05/08 02:38:15;;;;;;;5.32;3.70;;;;;;;2.86;89.21;96966.50;5018322;28;20049;-62
2021/05/08 02:40:41;;;;;;;7.65;3.63;;;;;;;2.83;89.17;96963.63;5052626;28;20081;-64
2021/05/08 02:43:08;;;;;;;5.57;3.63;;;;;;;2.89;88.74;96967.78;5042821;28;20444;-61
2021/05/08 02:45:34;;;;;;;6.53;4.30;;;;;;;2.90;88.51;96965.88;5064159;22;20053;-59
2021/05/08 02:47:59;;;;;;;6.10;3.75;;;;;;;2.96;88.77;96957.31;5039953;28;20044;-61
2021/05/08 02:50:25;;;;;;;5.53;4.05;;;;;;;3.11;88.92;96964.22;5034028;28;20130;-61
2021/05/08 02:52:51;;;;;;;6.53;3.95;;;;;;;3.00;87.48;96955.56;5022292;28;20041;-60
2021/05/08 02:55:16;;;;;;;6.00;4.15;;;;;;;2.85;88.06;96950.59;5004206;28;20496;-61
2021/05/08 02:57:42;;;;;;;4.85;3.65;;;;;;;2.78;88.71;96955.63;4978839;28;20034;-60
2021/05/08 03:00:11;;;;;;;6.72;4.72;;;;;;;2.79;88.40;96952.63;4994802;28;20434;-57
2021/05/08 03:02:37;;;;;;;5.70;3.90;;;;;;;2.78;88.48;96956.44;4999719;28;20137;-61
2021/05/08 03:05:03;;;;;;;5.97;3.20;;;;;;;2.81;87.62;96947.69;5015738;28;20554;-62
2021/05/08 03:07:28;;;;;;;6.72;4.05;;;;;;;2.80;88.03;96937.97;5017783;28;20049;-60
2021/05/08 03:09:54;;;;;;;6.63;3.80;;;;;;;2.87;88.13;96926.72;5020022;28;20415;-59
2021/05/08 03:12:19;;;;;;;7.70;4.13;;;;;;;3.01;86.85;96929.34;5015382;28;20132;-61
2021/05/08 03:14:45;;;;;;;5.28;3.60;;;;;;;3.08;86.22;96937.00;5021202;28;20038;-59
2021/05/08 03:17:11;;;;;;;10.32;4.03;;;;;;;3.03;86.29;96932.53;5017300;28;20098;-60
2021/05/08 03:19:36;;;;;;;5.70;3.63;;;;;;;3.10;86.20;96932.88;5023639;28;20064;-60
2021/05/08 03:22:05;;;;;;;5.50;3.60;;;;;;;2.99;85.95;96936.94;5026749;28;20074;-61
2021/05/08 03:24:31;;;;;;;5.70;3.80;;;;;;;2.95;86.45;96938.69;5025640;28;20596;-61
2021/05/08 03:26:57;;;;;;;5.53;4.10;;;;;;;2.95;85.84;96934.06;5024193;28;20073;-59
2021/05/08 03:29:22;;;;;;;5.80;3.88;;;;;;;2.85;86.84;96939.75;5018478;28;20077;-61
2021/05/08 03:31:48;;;;;;;7.30;4.03;;;;;;;2.94;86.73;96935.19;5023599;28;20041;-60
2021/05/08 03:34:13;;;;;;;5.45;3.60;;;;;;;2.98;85.67;96932.66;5017664;28;20091;-60
2021/05/08 03:36:39;;;;;;;4.05;3.40;;;;;;;2.92;86.68;96950.94;5023037;28;20049;-61
2021/05/08 03:39:05;;;;;;;5.47;3.70;;;;;;;2.89;86.49;96948.84;5019783;28;20060;-62
2021/05/08 03:41:31;;;;;;;5.57;3.30;;;;;;;2.99;85.95;96945.06;5023108;28;20495;-60
2021/05/08 03:43:56;;;;;;;4.63;2.90;;;;;;;2.97;86.27;96947.28;5029827;28;20052;-61
2021/05/08 03:46:23;;;;;;;3.95;3.03;;;;;;;2.86;86.26;96946.75;5013845;28;20097;-61
2021/05/08 03:48:48;;;;;;;5.15;3.10;;;;;;;2.82;86.10;96953.91;5022801;28;20041;-62
2021/05/08 03:51:14;;;;;;;5.57;3.40;;;;;;;2.78;86.08;96950.22;5018414;28;20061;-60
2021/05/08 03:53:39;;;;;;;6.05;3.35;;;;;;;2.91;86.49;96941.22;5022232;28;20519;-62
2021/05/08 03:56:05;;;;;;;4.90;3.30;;;;;;;3.15;84.51;96946.28;5018670;28;20406;-62
2021/05/08 03:58:31;;;;;;;3.72;2.60;;;;;;;3.08;84.67;96940.50;5023311;28;20080;-61
2021/05/08 04:00:57;;;;;;;4.53;3.10;;;;;;;3.03;84.71;96949.56;5026707;28;20053;-61
2021/05/08 04:03:23;;;;;;;4.25;2.80;;;;;;;3.02;84.26;96944.44;5021453;28;20547;-61
2021/05/08 04:05:50;;;;;;;6.78;2.97;;;;;;;2.94;84.67;96935.19;5030232;28;20082;-61
2021/05/08 04:08:17;;;;;;;5.15;3.10;;;;;;;2.90;83.75;96936.09;5027336;28;20084;-60
2021/05/08 04:10:45;;;;;;;5.35;3.10;;;;;;;2.95;84.77;96930.56;5034210;28;20044;-61
2021/05/08 04:13:12;;;;;;;4.75;3.05;;;;;;;2.93;83.25;96930.09;5002078;28;20099;-61
2021/05/08 04:15:37;;;;;;;5.68;3.10;;;;;;;2.82;83.70;96930.34;5030683;28;20056;-60
2021/05/08 04:18:03;;;;;;;5.20;3.00;;;;;;;2.92;83.87;96934.72;5020602;28;20041;-61
2021/05/08 04:20:28;;;;;;;7.45;3.40;;;;;;;2.71;84.41;96941.75;5020010;28;20411;-61
2021/05/08 04:22:54;;;;;;;6.10;3.22;;;;;;;2.70;84.22;96934.72;5023605;28;20045;-60
2021/05/08 04:25:19;;;;;;;4.97;3.33;;;;;;;2.61;84.53;96938.19;5030456;28;20135;-61
2021/05/08 04:27:45;;;;;;;7.00;3.65;;;;;;;2.79;84.36;96938.28;5024328;28;20408;-61
2021/05/08 04:30:11;;;;;;;4.65;3.40;;;;;;;2.89;84.11;96950.75;5026644;28;20042;-60
2021/05/08 04:32:36;;;;;;;6.57;3.03;;;;;;;3.02;83.66;96958.78;5020291;28;20052;-61
2021/05/08 04:35:02;;;;;;;4.63;2.90;;;;;;;3.09;83.12;96958.34;5022440;28;20120;-61
2021/05/08 04:37:27;;;;;;;6.95;2.65;;;;;;;3.19;83.63;96955.38;5020156;28;20080;-61
2021/05/08 04:39:53;;;;;;;5.22;3.08;;;;;;;3.22;83.01;96957.44;5032242;28;20506;-61
2021/05/08 04:42:18;;;;;;;4.03;3.10;;;;;;;3.27;82.84;96961.13;5018934;28;20045;-61
2021/05/08 04:44:43;;;;;;;3.85;2.40;;;;;;;3.51;81.72;96961.53;5027649;28;20064;-60
2021/05/08 04:47:12;;;;;;;4.43;3.03;;;;;;;3.69;81.04;96959.66;5015631;28;20103;-60
2021/05/08 04:49:39;;;;;;;4.45;2.83;;;;;;;3.74;79.65;96953.28;5023206;28;20045;-59
2021/05/08 04:52:05;;;;;;;6.30;3.08;;;;;;;3.92;79.55;96951.41;5041754;28;20042;-60
2021/05/08 04:54:30;;;;;;;4.25;2.70;;;;;;;3.59;80.61;96955.31;5016777;28;20376;-60
2021/05/08 04:56:56;;;;;;;5.88;3.10;;;;;;;3.96;79.75;96947.75;5019592;28;20543;-61
2021/05/08 04:59:21;;;;;;;4.43;2.45;;;;;;;4.62;78.99;96948.69;4996725;28;20124;-60
2021/05/08 05:01:47;;;;;;;3.90;2.60;;;;;;;5.88;76.10;96944.50;5019562;28;20046;-60
2021/05/08 05:04:12;;;;;;;4.10;2.40;;;;;;;7.53;67.31;96941.38;5016381;28;20037;-61
2021/05/08 05:06:37;;;;;;;5.05;2.55;;;;;;;9.10;63.35;96932.63;5031892;28;20045;-62
2021/05/08 05:09:03;;;;;;;3.92;2.38;;;;;;;10.54;56.68;96931.25;5021871;28;20045;-62
2021/05/08 05:11:29;;;;;;;2.60;1.90;;;;;;;11.96;52.67;96934.13;5024391;28;20136;-61
2021/05/08 05:13:54;;;;;;;4.03;1.90;;;;;;;13.11;48.73;96929.25;5023699;28;20041;-59
2021/05/08 05:16:20;;;;;;;2.75;1.70;;;;;;;13.07;47.47;96933.91;5003665;28;20045;-61
2021/05/08 05:18:45;;;;;;;3.13;1.63;;;;;;;13.81;45.90;96937.72;5023366;28;20046;-61
2021/05/08 05:21:10;;;;;;;2.50;1.80;;;;;;;14.99;42.98;96938.38;5022915;28;20049;-62
2021/05/08 05:23:36;;;;;;;3.60;1.80;;;;;;;16.09;40.16;96935.31;5020298;28;20048;-59
2021/05/08 05:26:02;;;;;;;6.80;2.30;;;;;;;16.93;38.41;96929.16;5019134;28;20052;-62
2021/05/08 05:28:30;;;;;;;4.55;1.88;;;;;;;16.55;37.70;96940.72;5018135;28;20037;-61
2021/05/08 05:30:56;;;;;;;4.57;1.92;;;;;;;15.98;39.33;96935.31;5033962;28;20041;-62
2021/05/08 05:33:22;;;;;;;4.22;1.85;;;;;;;16.75;38.39;96940.25;5023400;28;20057;-62
2021/05/08 05:35:50;;;;;;;9.98;2.00;;;;;;;17.35;38.64;96932.84;5032206;28;20041;-59
2021/05/08 05:38:16;;;;;;;2.50;1.50;;;;;;;17.59;37.98;96947.69;5015802;28;20052;-61
2021/05/08 05:40:42;;;;;;;3.20;1.73;;;;;;;17.53;37.57;96949.34;5021190;28;20049;-61
2021/05/08 05:43:08;;;;;;;2.92;1.52;;;;;;;19.35;35.00;96943.06;5014162;28;20056;-61
2021/05/08 05:45:33;;;;;;;12.48;1.80;;;;;;;17.96;35.80;96949.78;5020687;28;20049;-61
2021/05/08 05:48:01;;;;;;;6.72;4.85;;;;;;;12.82;48.14;96948.19;5031696;28;20048;-61
2021/05/08 05:50:27;;;;;;;3.67;2.30;;;;;;;11.09;53.03;96953.03;5023608;28;20882;-62
2021/05/08 05:52:55;;;;;;;3.28;2.05;;;;;;;14.21;46.02;96949.81;5035472;28;20049;-61
2021/05/08 05:55:22;;;;;;;4.75;1.83;;;;;;;14.44;42.56;96946.78;5020765;28;20079;-60
2021/05/08 05:57:48;;;;;;;2.83;1.63;;;;;;;12.27;48.43;96939.66;5022908;28;20432;-61
2021/05/08 06:00:15;;;;;;;3.33;1.67;;;;;;;11.41;50.14;96941.84;5010928;28;20042;-61
2021/05/08 06:02:40;;;;;;;5.25;1.70;;;;;;;12.84;47.93;96945.84;5018010;28;20060;-60
2021/05/08 06:05:06;;;;;;;3.47;2.08;;;;;;;13.58;47.33;96938.75;5024837;28;20041;-61
2021/05/08 06:07:31;;;;;;;10.55;5.60;;;;;;;12.43;47.94;96946.53;5019968;28;20045;-62
2021/05/08 06:09:57;;;;;;;4.18;1.98;;;;;;;11.54;50.13;96951.47;5025121;28;20037;-61
2021/05/08 06:12:22;;;;;;;5.38;2.80;;;;;;;11.28;51.14;96946.72;5018948;28;20091;-61
2021/05/08 06:14:48;;;;;;;3.92;2.78;;;;;;;10.34;56.12;96949.63;5019980;28;20155;-61
2021/05/08 06:17:13;;;;;;;3.47;2.40;;;;;;;12.69;50.63;96938.59;5022683;28;20044;-61
2021/05/08 06:19:38;;;;;;;2.75;1.77;;;;;;;13.39;46.08;96939.75;5020488;28;20401;-58
2021/05/08 06:22:04;;;;;;;3.70;3.30;;;;;;;13.05;46.84;96939.78;5032370;28;20047;-60
2021/05/08 06:24:29;;;;;;;3.40;2.38;;;;;;;14.12;45.87;96939.13;5023795;28;20624;-60
2021/05/08 06:26:54;;;;;;;3.95;1.55;;;;;;;12.43;47.46;96932.00;5020201;28;20041;-60
2021/05/08 06:29:20;;;;;;;3.55;1.80;;;;;;;11.01;52.33;96932.13;5021037;28;20075;-62
2021/05/08 06:31:45;;;;;;;2.47;1.70;;;;;;;13.01;48.37;96925.22;5026787;28;20041;-63
2021/05/08 06:34:11;;;;;;;5.30;2.97;;;;;;;12.82;48.72;96921.50;5020307;28;20043;-61
2021/05/08 06:36:36;;;;;;;3.63;1.80;;;;;;;14.90;43.96;96927.69;5015653;28;20057;-60
2021/05/08 06:39:02;;;;;;;25.10;12.55;;;;;;;12.96;47.12;96928.28;5023257;28;20047;-62
2021/05/08 06:41:27;;;;;;;10.48;5.72;;;;;;;12.40;49.57;96932.75;5005008;28;20420;-62
2021/05/08 06:43:53;;;;;;;8.13;4.85;;;;;;;13.22;50.96;96929.34;5026369;28;20052;-61
2021/05/08 06:46:18;;;;;;;8.55;4.38;;;;;;;16.38;41.50;96931.28;5021262;28;20483;-62
2021/05/08 06:48:44;;;;;;;5.18;1.80;;;;;;;17.10;39.13;96925.47;5030373;28;20088;-62
2021/05/08 06:51:09;;;;;;;3.33;1.70;;;;;;;16.08;41.47;96933.72;5016695;28;20069;-62
2021/05/08 06:53:35;;;;;;;2.65;1.60;;;;;;;18.70;36.14;96926.47;5011837;28;20052;-62
2021/05/08 06:56:01;;;;;;;3.08;1.35;;;;;;;18.98;34.39;96925.34;5030260;28;20523;-62
2021/05/08 06:58:27;;;;;;;6.40;1.83;;;;;;;16.87;41.43;96941.81;5024820;28;20051;-63
2021/05/08 07:00:53;;;;;;;2.55;1.83;;;;;;;16.63;39.69;96950.56;5030345;28;20037;-61
2021/05/08 07:03:18;;;;;;;3.58;3.10;;;;;;;14.71;46.36;96952.84;5017431;28;20041;-62
2021/05/08 07:05:43;;;;;;;3.70;1.67;;;;;;;13.95;45.64;96946.91;5036531;28;20080;-60
2021/05/08 07:08:10;;;;;;;4.72;1.83;;;;;;;15.36;44.03;96944.75;5032024;28;20049;-62
2021/05/08 07:10:56;;;;;;;2.90;1.52;;;;;;;15.99;40.30;96945.97;5052271;28;20045;-61
2021/05/08 07:13:22;;;;;;;2.20;1.58;;;;;;;15.99;42.99;96954.28;5026900;28;20556;-60
2021/05/08 07:15:47;;;;;;;4.03;1.73;;;;;;;17.53;39.44;96939.03;5030388;28;20445;-62
2021/05/08 07:18:13;;;;;;;6.75;2.53;;;;;;;18.20;37.63;96940.88;5018613;28;20041;-62
2021/05/08 07:20:39;;;;;;;3.13;1.98;;;;;;;13.19;48.94;96953.69;5023922;28;20033;-62
2021/05/08 07:23:06;;;;;;;5.53;2.22;;;;;;;15.93;42.92;96950.31;5023416;28;20509;-62
2021/05/08 07:25:32;;;;;;;3.17;1.85;;;;;;;16.02;40.52;96942.41;5025443;28;20061;-59
2021/05/08 07:28:12;;;;;;;5.82;2.70;;;;;;;14.49;43.97;96933.41;5033092;28;20557;-60
2021/05/08 07:30:37;;;;;;;;;;;;;;;13.10;49.51;96939.44;5022205;28;20041;-60
2021/05/08 07:33:03;;;;;;;4.75;2.17;;;;;;;14.17;48.09;96925.00;5036014;28;19916;-62
2021/05/08 07:35:28;;;;;;;3.35;2.20;;;;;;;14.50;45.72;96923.19;5026911;28;20077;-62
2021/05/08 07:37:54;;;;;;;3.22;1.65;;;;;;;15.67;44.90;96915.59;5032849;28;20430;-60
2021/05/08 07:40:19;;;;;;;2.83;1.80;;;;;;;16.35;41.33;96911.94;5023461;28;20041;-62
2021/05/08 07:42:45;;;;;;;5.30;2.10;;;;;;;14.90;45.53;96913.91;5025582;28;20072;-61
2021/05/08 07:45:11;;;;;;;7.63;2.95;;;;;;;15.45;45.10;96912.06;5024313;28;20508;-60
2021/05/08 07:47:37;;;;;;;3.67;1.88;;;;;;;18.48;38.38;96907.28;5021310;28;20044;-61
2021/05/08 07:50:03;;;;;;;3.30;2.00;;;;;;;20.03;35.39;96902.31;5025821;28;20057;-62
2021/05/08 07:52:29;;;;;;;5.00;2.35;;;;;;;17.63;39.14;96908.88;5005728;28;20049;-62
2021/05/08 07:54:54;;;;;;;5.05;1.90;;;;;;;19.96;35.69;96908.78;5023964;28;20042;-61
2021/05/08 07:57:19;;;;;;;2.63;1.80;;;;;;;19.14;36.65;96910.84;5018406;28;20037;-61
2021/05/08 07:59:45;;;;;;;3.10;1.95;;;;;;;20.29;35.20;96914.53;5023729;28;20103;-62
2021/05/08 08:02:11;;;;;;;3.72;1.95;;;;;;;19.48;36.71;96907.16;5023275;28;20045;-62
2021/05/08 08:04:36;;;;;;;3.47;1.63;;;;;;;19.91;37.24;96914.06;5020447;28;20500;-61
2021/05/08 08:07:02;;;;;;;5.53;2.13;;;;;;;20.11;35.98;96916.88;5034745;28;20045;-60
2021/05/08 08:09:27;;;;;;;2.92;1.88;;;;;;;21.08;33.60;96912.97;5022874;28;20056;-61
2021/05/08 08:11:53;;;;;;;3.35;1.83;;;;;;;21.17;33.26;96917.97;5023994;28;20079;-59
2021/05/08 08:14:19;;;;;;;5.78;2.05;;;;;;;20.85;34.27;96919.47;5027319;28;20099;-62
2021/05/08 08:16:45;;;;;;;4.45;2.47;;;;;;;21.29;31.78;96919.31;5030308;28;20099;-63
2021/05/08 08:19:10;;;;;;;3.45;2.17;;;;;;;20.39;33.98;96921.13;5024805;28;20442;-63
2021/05/08 08:21:36;;;;;;;4.72;1.98;;;;;;;20.70;32.86;96920.97;5031777;28;20135;-63
2021/05/08 08:24:01;;;;;;;2.60;1.60;;;;;;;18.63;36.21;96915.44;5025310;28;20514;-62
2021/05/08 08:26:27;;;;;;;4.35;2.20;;;;;;;19.97;35.86;96909.56;5027609;28;20045;-62
2021/05/08 08:28:52;;;;;;;3.45;1.98;;;;;;;20.41;33.39;96910.34;5033386;28;20033;-61
2021/05/08 08:31:17;;;;;;;3.35;2.13;;;;;;;21.13;31.13;96909.69;5019658;28;20468;-63
2021/05/08 08:33:43;;;;;;;3.40;1.70;;;;;;;21.13;30.49;96912.47;5024168;28;20033;-61
2021/05/08 08:36:08;;;;;;;2.63;1.27;;;;;;;19.62;32.93;96909.72;5015874;28;20052;-62
2021/05/08 08:38:34;;;;;;;3.88;2.28;;;;;;;15.07;44.64;96922.63;5021760;28;20784;-62
2021/05/08 08:40:59;;;;;;;3.60;1.88;;;;;;;17.92;39.06;96915.03;5029289;28;20041;-63
2021/05/08 08:43:25;;;;;;;3.10;1.60;;;;;;;17.89;37.04;96913.84;5008782;28;20088;-63
2021/05/08 08:45:50;;;;;;;3.25;1.20;;;;;;;19.81;32.65;96915.81;5022212;28;20088;-61
2021/05/08 08:48:17;;;;;;;4.15;1.40;;;;;;;20.96;30.79;96910.88;5026258;28;20053;-60
2021/05/08 08:50:47;;;;;;;6.13;1.60;;;;;;;21.74;30.38;96910.31;5020101;28;20044;-61
2021/05/08 08:53:14;;;;;;;1.80;1.27;;;;;;;21.90;29.81;96913.09;5015281;28;20426;-61
2021/05/08 08:55:43;;;;;;;3.08;1.60;;;;;;;22.38;28.82;96910.66;5021851;28;20053;-61
2021/05/08 08:58:11;;;;;;;2.78;1.45;;;;;;;21.37;30.82;96907.56;5013937;28;20069;-62
2021/05/08 09:00:36;;;;;;;3.85;1.48;;;;;;;22.11;30.20;96903.41;5020602;28;20118;-62
2021/05/08 09:03:05;;;;;;;3.03;1.20;;;;;;;22.59;27.67;96895.34;5026909;28;20068;-60
2021/05/08 09:05:31;;;;;;;4.22;1.35;;;;;;;21.94;28.24;96899.06;5021983;28;20048;-61
2021/05/08 09:08:05;;;;;;;2.13;1.23;;;;;;;21.39;29.56;96909.91;5022282;28;20044;-60
2021/05/08 09:10:32;;;;;;;2.58;1.20;;;;;;;21.12;29.63;96904.53;5021206;28;20137;-62
2021/05/08 09:12:59;;;;;;;2.15;1.35;;;;;;;21.33;28.91;96903.28;5020078;28;20064;-62
2021/05/08 09:15:41;;;;;;;2.05;1.35;;;;;;;21.25;29.35;96897.09;5022459;28;20053;-63
2021/05/08 09:18:09;;;;;;;2.00;1.20;;;;;;;19.12;32.86;96902.13;5015827;28;20063;-61
2021/05/08 09:20:45;;;;;;;2.85;1.10;;;;;;;19.15;34.89;96898.53;5032982;28;20045;-62
2021/05/08 09:23:23;;;;;;;1.38;0.82;;;;;;;18.58;33.22;96893.72;5016373;28;20452;-61
2021/05/08 09:26:05;;;;;;;3.27;1.17;;;;;;;18.78;35.12;96888.31;5022129;28;20427;-64
2021/05/08 09:28:32;;;;;;;1.00;0.65;;;;;;;20.36;32.58;96889.38;5045779;28;20113;-60
2021/05/08 09:30:58;;;;;;;0.55;0.52;;;;;;;21.71;29.02;96884.06;5032906;28;20048;-61
2021/05/08 09:33:25;;;;;;;1.38;0.70;;;;;;;19.47;32.26;96880.59;5014700;28;20454;-60
2021/05/08 09:36:04;;;;;;;4.20;1.92;;;;;;;20.63;29.53;96869.00;5029905;28;20045;-55
2021/05/08 09:38:31;;;;;;;2.45;0.90;;;;;;;21.17;29.50;96867.84;5027178;28;20049;-63
2021/05/08 09:40:57;;;;;;;2.35;0.50;;;;;;;22.35;27.72;96864.13;5010809;28;20123;-58
2021/05/08 09:43:23;;;;;;;1.02;0.60;;;;;;;21.20;30.14;96866.97;5015698;28;20809;-61
2021/05/08 09:45:53;;;;;;;3.72;0.73;;;;;;;21.69;29.32;96866.22;5030587;28;20080;-59
2021/05/08 09:48:27;;;;;;;;;;;;;;;19.14;34.16;96863.66;5015793;28;20113;-58
2021/05/08 09:50:53;;;;;;;1.92;0.75;;;;;;;20.16;33.63;96860.78;5028959;28;19997;-62
2021/05/08 09:53:31;;;;;;;1.95;0.90;;;;;;;20.20;32.84;96865.06;5015484;28;20488;-59
2021/05/08 09:55:58;;;;;;;2.72;1.10;;;;;;;20.39;31.81;96873.84;5025523;28;20049;-58
2021/05/08 09:58:25;;;;;;;1.35;0.70;;;;;;;20.62;30.48;96868.22;5001066;28;20186;-60
2021/05/08 10:00:52;;;;;;;1.27;0.73;;;;;;;19.78;32.23;96880.53;5017300;28;20468;-57
2021/05/08 10:03:19;;;;;;;1.38;0.70;;;;;;;19.70;32.12;96873.47;5023605;28;20102;-60
2021/05/08 10:06:09;;;;;;;1.25;0.70;;;;;;;19.10;34.18;96851.81;5020650;28;20053;-61
2021/05/08 10:08:34;;;;;;;1.88;0.80;;;;;;;19.62;33.96;96853.38;5018713;28;20111;-61
2021/05/08 10:11:00;;;;;;;2.13;1.02;;;;;;;20.12;31.82;96855.28;5019156;28;20426;-59
2021/05/08 10:13:27;;;;;;;3.15;1.00;;;;;;;19.69;33.12;96856.03;5013987;28;20111;-60
2021/05/08 10:15:57;;;;;;;2.00;1.17;;;;;;;19.39;34.05;96845.81;5019818;28;20110;-60
2021/05/08 10:18:23;;;;;;;;;;;;;;;19.33;33.76;96844.72;5018731;28;20081;-61
2021/05/08 10:20:50;;;;;;;1.67;1.00;;;;;;;19.95;33.61;96846.09;5029457;28;19974;-59
2021/05/08 10:23:15;;;;;;;2.90;1.20;;;;;;;19.81;33.85;96844.34;5011859;28;20049;-60
2021/05/08 10:25:41;;;;;;;1.02;0.70;;;;;;;20.10;33.28;96849.38;5020624;28;20049;-59
2021/05/08 10:28:08;;;;;;;2.50;1.15;;;;;;;19.58;33.90;96838.75;5021051;28;20038;-60
2021/05/08 10:30:39;;;;;;;1.75;1.05;;;;;;;20.13;33.03;96840.19;5020167;28;20038;-59
2021/05/08 10:33:10;;;;;;;3.45;1.75;;;;;;;19.84;35.31;96848.25;5020919;28;20140;-67
2021/05/08 10:35:44;;;;;;;5.82;2.67;;;;;;;19.70;38.03;96840.94;5028224;28;20072;-59
2021/05/08 10:38:36;;;;;;;4.18;2.67;;;;;;;19.67;35.75;96850.88;5015444;28;20037;-60
2021/05/08 10:41:11;;;;;;;3.13;1.08;;;;;;;19.00;34.94;96844.44;5014152;28;20046;-61
2021/05/08 10:43:54;;;;;;;3.60;2.05;;;;;;;19.38;38.00;96841.47;5024046;28;20049;-59
2021/05/08 10:46:24;;;;;;;3.72;1.80;;;;;;;18.48;38.60;96849.06;5020303;28;20087;-56
2021/05/08 10:49:22;;;;;;;3.42;1.75;;;;;;;18.07;39.74;96836.06;5028352;28;20033;-57
2021/05/08 10:51:56;;;;;;;3.10;1.63;;;;;;;17.52;40.23;96826.72;4965074;28;20082;-60
2021/05/08 10:54:39;;;;;;;3.90;1.70;;;;;;;17.66;40.91;96825.00;5013035;28;20198;-59
2021/05/08 10:57:26;;;;;;;3.03;1.60;;;;;;;17.77;39.21;96817.34;5011540;28;20418;-58
2021/05/08 11:00:09;;;;;;;3.15;1.50;;;;;;;17.81;39.55;96822.84;5020073;28;20044;-64
2021/05/08 11:02:41;;;;;;;3.03;1.70;;;;;;;17.70;39.27;96809.91;4999622;28;20049;-59
2021/05/08 11:05:25;;;;;;;5.68;2.08;;;;;;;17.06;41.06;96808.50;4994580;28;20125;-57
2021/05/08 11:07:50;;;;;;;7.20;1.92;;;;;;;17.32;40.96;96815.41;4999899;28;20044;-59
2021/05/08 11:10:36;;;;;;;3.90;2.30;;;;;;;17.25;42.99;96807.16;4994759;28;20042;-63
2021/05/08 11:13:16;;;;;;;3.50;2.40;;;;;;;17.33;41.50;96810.66;5005027;28;20453;-66
2021/05/08 11:16:03;;;;;;;3.97;2.15;;;;;;;17.25;43.27;96798.06;5020134;28;20496;-61
2021/05/08 11:21:08;;;;;;;2.47;1.40;;;;;;;17.97;39.94;96795.44;5027013;28;20116;-60
2021/05/08 11:23:43;;;;;;;4.20;1.60;;;;;;;18.04;38.98;96792.56;5019869;28;20038;-61
2021/05/08 11:28:53;;;;;;;2.55;1.50;;;;;;;17.25;40.53;96784.22;5025062;28;20123;-58
2021/05/08 11:31:29;;;;;;;2.47;1.52;;;;;;;17.14;40.63;96779.59;5018014;28;20043;-62
2021/05/08 11:34:13;;;;;;;2.05;1.30;;;;;;;17.17;40.07;96764.91;5026812;28;20045;-61
2021/05/08 11:36:46;;;;;;;3.47;1.67;;;;;;;17.42;40.21;96769.44;5018529;28;20041;-59
2021/05/08 11:39:15;;;;;;;2.83;1.50;;;;;;;17.67;38.13;96763.66;5022669;28;20037;-60
2021/05/08 11:41:42;;;;;;;2.30;1.47;;;;;;;17.77;38.00;96757.22;5034354;28;20091;-64
2021/05/08 11:44:08;;;;;;;3.25;1.88;;;;;;;17.85;41.31;96749.63;5026098;28;20094;-59